Kelowna, Canada
Current Conditions -  °F | °C
As of 12:00 AM on Thursday 29 Jan 2015 (Local Time) from CYLW Reporting Station
Overcast Overcast  
Wind Chill: 34°   Ceiling: 1000
Heat Index: 34°   Visibility: 9mi
Dew Point: 32°   Wind: 0mph
Humidity: 93%   Direction: NA
Pressure: 30.48"   Gusts: NA
Location:  49.89°N, 119.5°W
Report Text: CYLW 290800Z AUTO 00000KT 9SM OVC010 01/00 A3048 RMK SLP341
Loading
Personal Weather Stations






























Interactive Weather Map New forecast layout! Learn more

10-Day Weather Forecast

Advertisements
Track Severe Weather on mobile